Time;durP1;ratioP1;P1;durP2;ratioP2;P2;SDS_P1;SDS_P2;PMS_P1;PMS_P2;Temp;Humidity;BMP_temperature;BMP_pressure;BME280_temperature;BME280_humidity;BME280_pressure;Samples;Min_cycle;Max_cycle;Signal;HPM_P1;HPM_P2
2022/01/25 00:24:16;;;;;;;7.07;3.60;;;;;;;-14.95;96.41;91858.41;5052173;28;20133;-69
2022/01/25 00:24:23;;;;;;;18.20;6.18;;;;;;;-15.00;94.02;91842.66;5051728;28;20415;-70
2022/01/25 00:32:06;;;;;;;17.52;6.53;;;;;;;-14.97;94.54;91854.38;5051521;28;20108;-70
2022/01/25 00:34:31;;;;;;;16.13;6.03;;;;;;;-15.04;94.53;91845.63;5051665;28;20104;-70
2022/01/25 00:36:57;;;;;;;17.10;5.90;;;;;;;-14.82;93.29;91852.22;5051534;28;20467;-69
2022/01/25 00:39:23;;;;;;;18.30;7.95;;;;;;;-14.95;92.89;91845.63;5051364;28;20029;-69
2022/01/25 00:41:48;;;;;;;16.05;5.60;;;;;;;-14.88;92.76;91849.25;5051710;28;20045;-70
2022/01/25 00:44:14;;;;;;;26.88;9.45;;;;;;;-15.01;92.95;91848.72;5051432;28;20079;-70
2022/01/25 00:46:39;;;;;;;6.43;3.53;;;;;;;-14.91;92.85;91859.72;5051717;28;20415;-70
2022/01/25 00:49:05;;;;;;;13.05;4.25;;;;;;;-14.89;92.48;91854.47;5051382;28;20041;-69
2022/01/25 00:54:44;;;;;;;3.72;2.78;;;;;;;-14.90;90.72;91860.53;5051278;28;20028;-69
2022/01/25 00:56:51;;;;;;;6.32;3.90;;;;;;;-14.95;89.46;91863.50;5040575;28;20037;-69
2022/01/25 00:59:25;;;;;;;5.35;2.90;;;;;;;-14.97;88.95;91865.38;5051534;28;20029;-69
2022/01/25 01:01:55;;;;;;;5.38;4.45;;;;;;;-15.06;88.64;91861.09;5050798;28;20120;-69
2022/01/25 01:04:21;;;;;;;8.90;4.70;;;;;;;-15.20;88.80;91853.84;5051868;28;20079;-69
2022/01/25 01:06:47;;;;;;;13.00;4.57;;;;;;;-15.17;88.85;91853.56;5051520;28;20024;-69
2022/01/25 01:09:16;;;;;;;7.90;3.30;;;;;;;-15.26;88.59;91849.28;5051259;28;20116;-69
2022/01/25 01:11:54;;;;;;;7.10;3.67;;;;;;;-15.27;88.79;91860.41;5051445;28;20502;-69
2022/01/25 01:14:40;;;;;;;5.13;2.25;;;;;;;-15.33;88.59;91858.38;5051273;28;20045;-69
2022/01/25 01:39:17;;;;;;;3.95;1.77;;;;;;;-15.14;90.08;91830.34;5054551;28;20029;-68
2022/01/25 01:44:01;;;;;;;2.65;1.75;;;;;;;-15.19;90.05;91829.94;5054400;28;20130;-69
2022/01/25 01:49:01;;;;;;;4.88;3.13;;;;;;;-15.35;89.62;91819.47;5054424;28;20045;-69
2022/01/25 01:51:34;;;;;;;3.13;2.30;;;;;;;-15.28;89.88;91811.16;5054613;28;20022;-69
2022/01/25 01:56:33;;;;;;;4.93;2.95;;;;;;;-15.29;89.82;91813.84;5253825;22;20047;-68
2022/01/25 01:59:02;;;;;;;5.15;2.78;;;;;;;-15.32;90.10;91801.31;5115348;28;20020;-68
2022/01/25 02:01:29;;;;;;;9.07;3.47;;;;;;;-15.26;89.81;91814.38;5114884;28;20044;-68
2022/01/25 02:03:55;;;;;;;6.38;3.67;;;;;;;-15.34;90.58;91805.75;5115397;28;20054;-68
2022/01/25 02:06:22;;;;;;;12.90;4.43;;;;;;;-15.35;90.68;91793.94;5114861;28;20078;-68
2022/01/25 02:08:48;;;;;;;6.00;2.58;;;;;;;-15.38;91.31;91789.94;5114924;28;20125;-68
2022/01/25 02:11:13;;;;;;;16.27;6.70;;;;;;;-15.32;91.39;91798.78;5114736;28;20086;-68
2022/01/25 02:13:41;;;;;;;19.30;6.90;;;;;;;-15.27;91.43;91801.75;5115007;28;20051;-68
2022/01/25 02:16:14;;;;;;;6.95;3.88;;;;;;;-15.18;90.29;91800.91;5114609;28;20030;-68
2022/01/25 02:24:08;;;;;;;4.57;2.38;;;;;;;-15.47;88.81;91793.28;5114680;28;20050;-68
2022/01/25 02:26:33;;;;;;;8.55;3.78;;;;;;;-15.46;88.45;91797.44;5114406;28;20468;-68
2022/01/25 02:28:59;;;;;;;4.50;2.30;;;;;;;-15.49;88.41;91797.72;5114756;28;20061;-68
2022/01/25 02:31:24;;;;;;;6.93;2.85;;;;;;;-15.60;88.61;91793.59;5114304;28;20041;-68
2022/01/25 02:33:50;;;;;;;5.35;3.15;;;;;;;-15.65;88.66;91798.28;5114587;28;20034;-68
2022/01/25 02:36:27;;;;;;;3.75;1.95;;;;;;;-15.74;89.00;91788.88;5114232;28;20474;-68
2022/01/25 02:38:56;;;;;;;3.13;1.45;;;;;;;-15.67;89.48;91801.91;5114103;28;20023;-68
2022/01/25 02:41:23;;;;;;;7.10;3.55;;;;;;;-15.69;90.00;91798.69;5095708;28;20085;-68
2022/01/25 02:43:50;;;;;;;9.77;4.20;;;;;;;-15.73;89.62;91797.34;5114566;28;20027;-68
2022/01/25 02:48:58;;;;;;;8.90;3.75;;;;;;;-15.78;89.64;91792.63;5113900;28;20031;-68
2022/01/25 02:51:45;;;;;;;9.10;3.88;;;;;;;-15.72;90.04;91796.41;5114151;28;20020;-68
2022/01/25 02:54:12;;;;;;;4.68;2.75;;;;;;;-15.81;90.52;91792.88;5113199;28;20035;-68
2022/01/25 02:56:40;;;;;;;4.88;3.10;;;;;;;-15.82;91.15;91791.28;5113655;28;20047;-68
2022/01/25 02:59:07;;;;;;;7.22;3.58;;;;;;;-15.80;91.29;91786.84;5113913;28;20023;-68
2022/01/25 03:01:34;;;;;;;8.85;4.80;;;;;;;-15.93;92.22;91786.31;5113620;28;20055;-68
2022/01/25 03:03:59;;;;;;;5.63;3.45;;;;;;;-15.98;93.37;91785.91;5113827;28;20030;-68
2022/01/25 03:06:25;;;;;;;7.90;4.50;;;;;;;-15.99;93.98;91785.09;5113683;28;20110;-68
2022/01/25 03:08:52;;;;;;;9.77;4.75;;;;;;;-15.93;94.84;91783.78;5113482;28;20028;-67
2022/01/25 03:11:19;;;;;;;7.35;1.70;;;;;;;-15.90;95.08;91783.50;5113680;28;20564;-68
2022/01/25 03:13:57;;;;;;;14.52;5.95;;;;;;;-15.99;94.07;91784.28;5113389;28;20028;-67
2022/01/25 03:16:39;;;;;;;13.27;6.43;;;;;;;-16.02;94.59;91774.38;5113210;28;20401;-68
2022/01/25 03:19:40;;;;;;;19.77;7.88;;;;;;;-15.93;94.94;91773.59;5113416;28;20059;-68
2022/01/25 03:21:54;;;;;;;23.58;8.80;;;;;;;-15.91;94.53;91769.16;5113607;28;20039;-68
2022/01/25 03:24:19;;;;;;;10.50;4.30;;;;;;;-15.91;94.32;91762.31;5113078;28;20027;-68
2022/01/25 03:26:45;;;;;;;8.18;3.10;;;;;;;-15.91;94.12;91747.03;5113338;28;20057;-68
2022/01/25 03:29:10;;;;;;;7.80;3.50;;;;;;;-15.80;93.99;91746.06;5113877;28;20023;-68
2022/01/25 03:31:36;;;;;;;10.05;4.55;;;;;;;-15.84;93.96;91734.53;5113651;28;20114;-68
2022/01/25 03:34:02;;;;;;;6.05;3.40;;;;;;;-15.67;93.76;91750.91;5113482;28;20028;-68
2022/01/25 03:36:27;;;;;;;7.38;3.85;;;;;;;-15.64;92.11;91756.53;5113021;28;20039;-68
2022/01/25 03:38:53;;;;;;;8.50;3.88;;;;;;;-15.62;90.94;91744.47;5113238;28;20036;-67
2022/01/25 03:41:19;;;;;;;2.47;1.63;;;;;;;-15.71;90.16;91742.72;5112936;28;20480;-67
2022/01/25 03:43:52;;;;;;;8.18;2.83;;;;;;;-15.71;90.01;91737.63;5094779;28;20034;-67
2022/01/25 03:46:37;;;;;;;7.22;3.75;;;;;;;-15.68;89.37;91737.34;5112903;28;20100;-67
2022/01/25 03:51:47;;;;;;;5.20;2.83;;;;;;;-15.68;88.35;91731.47;5112819;28;20144;-67
2022/01/25 03:54:13;;;;;;;3.03;2.05;;;;;;;-15.68;88.93;91741.66;5112926;28;20023;-67
2022/01/25 03:56:39;;;;;;;3.60;1.90;;;;;;;-15.64;88.27;91735.34;5112547;28;20067;-67
2022/01/25 03:59:05;;;;;;;3.50;1.58;;;;;;;-15.61;87.56;91728.25;5113285;28;20024;-67
2022/01/25 04:01:32;;;;;;;8.93;5.18;;;;;;;-15.65;87.62;91729.44;5094290;28;20495;-67
2022/01/25 04:04:01;;;;;;;10.10;4.53;;;;;;;-15.69;87.80;91740.03;5112447;28;20444;-67
2022/01/25 04:06:30;;;;;;;17.63;4.85;;;;;;;-15.78;88.17;91728.91;5112423;28;20083;-67
2022/01/25 04:08:58;;;;;;;9.02;4.00;;;;;;;-15.83;88.88;91719.13;5112993;28;20035;-67
2022/01/25 04:11:23;;;;;;;7.38;3.75;;;;;;;-15.84;88.70;91727.69;5094192;28;20114;-67
2022/01/25 04:13:51;;;;;;;9.65;3.58;;;;;;;-15.82;88.23;91719.91;5112596;28;20110;-67
2022/01/25 04:16:22;;;;;;;4.70;2.88;;;;;;;-15.83;88.37;91723.41;5112278;28;20028;-67
2022/01/25 04:18:57;;;;;;;8.48;4.70;;;;;;;-15.93;88.96;91722.63;5112420;28;20112;-67
2022/01/25 04:21:46;;;;;;;11.25;5.55;;;;;;;-15.93;89.33;91722.63;5112574;28;20024;-67
2022/01/25 04:26:57;;;;;;;22.98;7.47;;;;;;;-15.81;90.18;91724.06;5112529;28;20038;-67
2022/01/25 04:29:24;;;;;;;7.57;2.88;;;;;;;-15.79;90.62;91719.63;5112512;28;20020;-67
2022/01/25 04:31:50;;;;;;;16.48;5.93;;;;;;;-15.87;91.63;91699.94;5112726;28;20054;-67
2022/01/25 04:50:13;;;;;;;33.13;8.90;;;;;;;-15.97;98.40;91721.25;5112514;28;20032;-66
2022/01/25 04:52:51;;;;;;;40.63;14.15;;;;;;;-15.92;98.67;91729.31;5112206;28;20496;-66
2022/01/25 04:55:27;;;;;;;27.48;10.70;;;;;;;-15.80;97.92;91718.03;5111703;28;20417;-67
2022/01/25 04:58:00;;;;;;;46.17;14.23;;;;;;;-15.73;96.98;91723.41;5111902;28;20019;-66
2022/01/25 05:00:26;;;;;;;40.72;10.77;;;;;;;-15.75;96.16;91718.47;5112456;28;20020;-66
2022/01/25 05:03:29;;;;;;;7.28;4.30;;;;;;;-15.53;93.98;91710.47;5112325;28;20026;-69
2022/01/25 05:06:09;;;;;;;5.78;2.85;;;;;;;-15.45;91.95;91713.16;5097250;28;20043;-67
2022/01/25 05:08:40;;;;;;;13.02;6.32;;;;;;;-15.40;90.97;91719.59;5116022;28;20024;-66
2022/01/25 05:11:21;;;;;;;20.73;7.90;;;;;;;-15.56;90.73;91704.84;5115666;28;20024;-66
2022/01/25 05:16:47;;;;;;;16.33;7.68;;;;;;;-15.91;91.07;91715.66;5115531;28;20027;-66
2022/01/25 05:24:27;;;;;;;25.08;10.75;;;;;;;-16.44;89.64;91704.03;5115986;28;20503;-67
2022/01/25 05:26:53;;;;;;;54.63;22.50;;;;;;;-16.45;93.97;91678.72;5115798;28;20028;-67
2022/01/25 05:29:18;;;;;;;25.65;11.18;;;;;;;-16.11;99.26;91668.94;5115761;28;20073;-67
2022/01/25 05:31:44;;;;;;;17.98;8.57;;;;;;;-15.89;100.00;91662.78;5115718;28;20023;-67
2022/01/25 05:34:09;;;;;;;25.48;9.98;;;;;;;-15.62;100.00;91664.63;5115531;28;20047;-67
2022/01/25 05:36:36;;;;;;;13.77;6.07;;;;;;;-15.41;100.00;91657.56;5115607;28;20027;-67
2022/01/25 05:39:09;;;;;;;14.45;7.93;;;;;;;-15.15;100.00;91665.41;5115249;28;20019;-67
2022/01/25 05:41:35;;;;;;;26.98;9.00;;;;;;;-15.01;100.00;91657.28;5115252;28;20035;-67
2022/01/25 05:44:22;;;;;;;17.50;7.18;;;;;;;-14.87;100.00;91654.28;5115101;28;20027;-67
2022/01/25 05:47:13;;;;;;;11.45;3.85;;;;;;;-14.70;100.00;91641.69;5115140;28;20032;-67
2022/01/25 05:49:37;;;;;;;21.40;8.57;;;;;;;-14.61;96.95;91651.88;5114599;28;20031;-68
2022/01/25 05:52:05;;;;;;;11.80;5.22;;;;;;;-14.55;92.72;91658.16;5115052;28;20111;-68
2022/01/25 05:54:31;;;;;;;24.48;7.82;;;;;;;-14.64;88.53;91664.13;5114744;28;20100;-68
2022/01/25 05:56:56;;;;;;;18.70;8.52;;;;;;;-14.81;88.55;91670.00;5115043;28;20027;-68
2022/01/25 05:59:22;;;;;;;17.42;7.68;;;;;;;-15.02;89.97;91672.75;5115319;28;20039;-67
2022/01/25 06:01:48;;;;;;;16.88;6.65;;;;;;;-15.01;92.85;91670.06;5115221;28;20033;-68
2022/01/25 06:04:14;;;;;;;20.38;10.13;;;;;;;-15.06;94.68;91661.22;5115086;28;20051;-68
2022/01/25 06:06:39;;;;;;;29.55;11.70;;;;;;;-15.09;94.73;91675.06;5096629;28;20118;-68
2022/01/25 06:09:05;;;;;;;44.38;18.20;;;;;;;-15.07;96.53;91678.28;5114976;28;20028;-68
2022/01/25 06:11:32;;;;;;;57.67;20.88;;;;;;;-15.29;96.23;91665.88;5114739;28;20393;-68
2022/01/25 06:13:58;;;;;;;121.80;37.47;;;;;;;-15.34;96.42;91673.13;5114185;28;20123;-68
2022/01/25 06:16:24;;;;;;;91.53;29.15;;;;;;;-15.10;100.00;91676.00;5114360;28;20108;-68
2022/01/25 06:18:50;;;;;;;152.18;43.22;;;;;;;-15.27;100.00;91664.00;5114901;28;20066;-67
2022/01/25 06:21:15;;;;;;;61.13;23.00;;;;;;;-15.28;99.89;91672.59;5115119;28;20063;-68
2022/01/25 06:23:41;;;;;;;31.40;14.73;;;;;;;-15.36;99.50;91669.91;5114993;28;20027;-68
2022/01/25 06:26:06;;;;;;;46.28;17.35;;;;;;;-15.25;98.07;91670.56;5114422;28;20036;-68
2022/01/25 06:28:32;;;;;;;48.00;21.27;;;;;;;-15.14;96.67;91679.78;5095577;28;20122;-69
2022/01/25 06:30:57;;;;;;;22.05;10.93;;;;;;;-15.16;92.39;91692.66;5114333;28;20031;-69
2022/01/25 06:33:23;;;;;;;71.50;23.98;;;;;;;-15.56;91.20;91674.25;5095729;28;20440;-69
2022/01/25 06:35:49;;;;;;;23.38;9.70;;;;;;;-15.72;90.54;91681.69;5113943;28;20032;-67
2022/01/25 06:38:14;;;;;;;33.45;12.82;;;;;;;-15.73;92.63;91680.09;5114126;28;20038;-68
2022/01/25 06:40:40;;;;;;;19.42;9.63;;;;;;;-15.69;94.64;91681.41;5113748;28;20028;-69
2022/01/25 06:43:06;;;;;;;41.13;15.27;;;;;;;-15.63;95.20;91679.09;5113924;28;20030;-69
2022/01/25 06:45:33;;;;;;;55.63;22.90;;;;;;;-15.82;96.67;91684.22;5113893;28;20024;-68
2022/01/25 06:47:59;;;;;;;66.63;26.08;;;;;;;-15.90;97.89;91681.56;5114053;28;20070;-68
2022/01/25 06:50:24;;;;;;;50.08;22.00;;;;;;;-15.66;99.29;91669.19;5113520;28;20028;-68
2022/01/25 06:52:51;;;;;;;38.38;16.73;;;;;;;-15.37;97.71;91658.09;5113726;28;20500;-68
2022/01/25 06:55:18;;;;;;;46.63;19.52;;;;;;;-15.13;96.33;91658.44;5113182;28;20048;-69
2022/01/25 06:57:45;;;;;;;37.60;17.70;;;;;;;-14.61;95.92;91648.53;5113726;28;20492;-68
2022/01/25 07:00:16;;;;;;;58.78;24.75;;;;;;;-14.26;93.00;91657.94;5113538;28;20023;-67
2022/01/25 07:02:43;;;;;;;23.20;10.07;;;;;;;-13.90;91.71;91671.53;5113563;28;20084;-67
2022/01/25 07:05:08;;;;;;;45.03;16.67;;;;;;;-13.80;90.66;91656.13;5113300;28;20028;-66
2022/01/25 07:07:35;;;;;;;57.45;22.58;;;;;;;-13.06;89.34;91653.09;5113334;28;20553;-67
2022/01/25 07:10:01;;;;;;;59.85;22.38;;;;;;;-10.40;81.67;91654.44;5114002;28;20032;-67
2022/01/25 07:12:26;;;;;;;61.22;24.23;;;;;;;-7.01;67.92;91652.91;5113628;28;20088;-67
2022/01/25 07:14:52;;;;;;;55.28;23.75;;;;;;;-5.21;57.29;91645.88;5113324;28;20051;-67
2022/01/25 07:17:17;;;;;;;58.05;24.42;;;;;;;-3.46;52.64;91647.84;5113392;28;20643;-67
2022/01/25 07:19:43;;;;;;;45.30;21.48;;;;;;;-3.04;49.45;91649.03;5113610;28;20045;-67
2022/01/25 07:22:09;;;;;;;40.40;21.35;;;;;;;-3.03;47.90;91644.59;5113243;28;20039;-69
2022/01/25 07:24:35;;;;;;;54.20;26.75;;;;;;;-4.00;47.64;91649.00;5113348;28;20034;-67
2022/01/25 07:27:00;;;;;;;51.22;23.90;;;;;;;-4.72;49.46;91644.72;5112285;28;20027;-67
2022/01/25 07:29:27;;;;;;;98.65;44.10;;;;;;;-4.79;49.39;91643.91;5113080;28;20099;-67
2022/01/25 07:31:53;;;;;;;199.15;81.40;;;;;;;-4.23;48.82;91653.88;5113313;28;20077;-67
2022/01/25 07:34:19;;;;;;;189.63;87.35;;;;;;;-3.97;47.14;91653.81;5112913;28;20035;-67
2022/01/25 07:36:44;;;;;;;136.30;59.92;;;;;;;-6.30;50.42;91654.63;5113205;28;20404;-67
2022/01/25 07:39:11;;;;;;;144.68;60.58;;;;;;;-5.14;49.43;91649.25;5113063;28;20055;-67
2022/01/25 07:41:37;;;;;;;176.18;72.78;;;;;;;-4.55;49.04;91653.69;5112921;28;20116;-67
2022/01/25 07:44:03;;;;;;;135.38;54.97;;;;;;;-3.18;47.24;91654.50;5113302;28;20035;-67
2022/01/25 07:46:30;;;;;;;79.45;31.83;;;;;;;-1.39;44.85;91651.19;5113000;28;20031;-68
2022/01/25 07:48:56;;;;;;;57.30;25.33;;;;;;;-1.83;43.54;91640.81;5113149;28;20059;-68
2022/01/25 07:51:22;;;;;;;25.48;12.95;;;;;;;-3.41;46.15;91631.63;5113059;28;20404;-68
2022/01/25 07:53:49;;;;;;;32.80;15.23;;;;;;;-4.45;49.44;91635.09;5112817;28;20028;-68
2022/01/25 07:56:14;;;;;;;27.58;13.75;;;;;;;-2.43;47.22;91637.19;5112669;28;20116;-68
2022/01/25 07:58:40;;;;;;;115.10;55.03;;;;;;;-1.58;46.43;91632.13;5112715;28;20544;-68
2022/01/25 08:01:06;;;;;;;28.55;15.00;;;;;;;0.89;42.87;91619.94;5112528;28;20047;-68
2022/01/25 08:03:32;;;;;;;32.30;16.55;;;;;;;3.07;39.40;91626.13;5112964;28;20114;-68
2022/01/25 08:05:57;;;;;;;39.05;22.25;;;;;;;3.77;37.25;91626.03;5112548;28;20039;-68
2022/01/25 08:08:26;;;;;;;29.58;17.88;;;;;;;3.61;36.60;91621.66;5112829;28;20039;-70
2022/01/25 08:10:54;;;;;;;28.48;13.75;;;;;;;4.48;34.87;91607.34;5103495;28;20039;-69
2022/01/25 08:13:20;;;;;;;35.17;18.08;;;;;;;3.52;35.90;91617.91;5092014;28;20125;-67
2022/01/25 08:15:45;;;;;;;30.23;15.02;;;;;;;3.64;36.31;91608.03;5091867;28;20040;-67
2022/01/25 08:18:11;;;;;;;26.10;13.18;;;;;;;4.61;34.88;91611.38;5092195;28;20062;-66
2022/01/25 08:20:37;;;;;;;19.65;9.70;;;;;;;4.48;33.83;91613.41;5100571;28;20136;-67
2022/01/25 08:23:02;;;;;;;23.50;13.55;;;;;;;5.67;33.24;91601.16;5106539;28;20084;-68
2022/01/25 08:25:28;;;;;;;25.83;13.38;;;;;;;5.33;31.41;91607.97;5091339;28;20413;-68
2022/01/25 08:27:55;;;;;;;14.70;8.45;;;;;;;5.25;32.52;91600.56;5091840;28;20078;-68
2022/01/25 08:30:20;;;;;;;11.23;6.88;;;;;;;5.24;32.38;91617.44;5091592;28;20539;-69
2022/01/25 08:32:46;;;;;;;14.45;9.63;;;;;;;6.28;32.07;91616.28;5091483;28;20032;-70
2022/01/25 08:35:11;;;;;;;13.48;8.43;;;;;;;5.91;32.01;91606.00;5091561;28;20073;-69
2022/01/25 08:37:37;;;;;;;18.98;12.13;;;;;;;7.22;30.71;91601.53;5093042;28;20512;-70
2022/01/25 08:40:07;;;;;;;9.68;6.18;;;;;;;7.59;30.07;91606.38;5099158;28;20073;-70
2022/01/25 08:42:35;;;;;;;12.18;8.02;;;;;;;7.76;29.90;91604.16;5105923;28;20538;-70
2022/01/25 08:45:02;;;;;;;10.93;7.40;;;;;;;9.87;27.82;91602.63;5107065;28;20008;-70
2022/01/25 08:47:28;;;;;;;18.58;9.02;;;;;;;8.86;28.09;91607.28;5103609;28;20036;-70
2022/01/25 08:49:55;;;;;;;9.75;7.05;;;;;;;8.64;28.92;91597.13;5095193;28;20024;-70
2022/01/25 08:52:20;;;;;;;10.38;6.43;;;;;;;8.55;28.66;91599.63;5095573;28;20548;-72
2022/01/25 08:54:46;;;;;;;12.00;7.15;;;;;;;8.68;28.32;91598.97;5094762;28;20111;-71
2022/01/25 08:57:11;;;;;;;10.50;7.00;;;;;;;9.58;27.19;91605.38;5095491;28;20115;-70
2022/01/25 08:59:37;;;;;;;14.40;9.30;;;;;;;9.44;27.93;91609.81;5095393;28;20044;-70
2022/01/25 09:02:03;;;;;;;17.73;12.65;;;;;;;8.49;28.46;91595.41;5095428;28;20108;-69
2022/01/25 09:04:28;;;;;;;15.77;9.68;;;;;;;7.02;30.92;91599.75;5095132;28;20120;-70
2022/01/25 09:06:54;;;;;;;25.48;14.32;;;;;;;8.63;30.03;91599.00;5095309;28;20047;-71
2022/01/25 09:09:20;;;;;;;18.15;10.63;;;;;;;9.67;27.06;91606.34;5076990;28;20028;-69
2022/01/25 09:11:46;;;;;;;16.80;9.75;;;;;;;10.46;26.05;91601.22;5094691;28;20040;-70
2022/01/25 09:14:13;;;;;;;23.70;12.63;;;;;;;8.82;27.65;91600.94;5112150;28;20534;-71
2022/01/25 09:16:39;;;;;;;25.65;13.85;;;;;;;8.52;28.47;91604.66;5115524;28;20035;-70
2022/01/25 09:19:05;;;;;;;17.67;11.25;;;;;;;9.35;28.05;91596.38;5115352;28;20432;-71
2022/01/25 09:21:31;;;;;;;16.77;9.73;;;;;;;8.87;27.65;91587.63;5114245;28;20040;-71
2022/01/25 09:23:56;;;;;;;12.57;8.90;;;;;;;8.90;27.62;91603.00;5110278;28;20488;-71
2022/01/25 09:26:23;;;;;;;16.63;11.20;;;;;;;8.54;28.68;91598.03;5114580;28;20035;-71
2022/01/25 09:28:53;;;;;;;15.32;10.40;;;;;;;9.17;27.63;91589.19;5115115;28;20446;-70
2022/01/25 09:31:19;;;;;;;23.08;13.32;;;;;;;8.40;28.77;91589.94;5114647;28;20501;-70
2022/01/25 09:33:45;;;;;;;33.78;22.80;;;;;;;8.42;28.78;91578.25;5100168;28;20032;-71
2022/01/25 09:36:10;;;;;;;22.02;14.32;;;;;;;8.19;29.39;91582.38;5101972;28;20085;-70
2022/01/25 09:38:36;;;;;;;20.98;14.02;;;;;;;7.72;29.37;91587.22;5103596;28;20030;-68
2022/01/25 09:41:02;;;;;;;16.52;11.38;;;;;;;7.82;29.40;91587.16;5093488;28;20032;-67
2022/01/25 09:43:28;;;;;;;19.98;11.45;;;;;;;6.21;31.43;91584.06;5094378;28;20414;-68
2022/01/25 09:45:55;;;;;;;19.60;11.88;;;;;;;8.20;29.71;91576.03;5093599;28;20536;-70
2022/01/25 09:48:20;;;;;;;27.23;16.55;;;;;;;8.07;29.39;91561.56;5094164;28;20101;-69
2022/01/25 09:50:47;;;;;;;18.88;11.48;;;;;;;8.99;28.73;91562.31;5092854;28;20047;-69
2022/01/25 09:53:12;;;;;;;34.75;19.60;;;;;;;10.47;27.38;91547.72;5110725;28;20028;-69
2022/01/25 09:55:40;;;;;;;17.63;10.32;;;;;;;8.54;28.56;91555.63;5114246;28;20039;-68
2022/01/25 09:58:08;;;;;;;17.02;9.88;;;;;;;9.29;27.33;91547.06;5114665;28;20119;-67
2022/01/25 10:00:35;;;;;;;19.13;11.82;;;;;;;9.42;27.84;91540.25;5108860;28;20051;-65
2022/01/25 10:03:19;;;;;;;17.27;11.20;;;;;;;9.89;27.61;91531.34;5102644;28;20035;-66
2022/01/25 10:05:49;;;;;;;18.70;10.90;;;;;;;10.89;26.30;91495.38;5111179;28;20484;-66
2022/01/25 10:08:24;;;;;;;133.02;72.97;;;;;;;12.05;25.95;91520.63;5113905;28;20515;-66
2022/01/25 10:10:55;;;;;;;26.80;15.02;;;;;;;7.77;30.07;91520.22;5113956;28;20039;-66
2022/01/25 10:13:28;;;;;;;22.60;13.85;;;;;;;6.92;30.08;91520.44;5113712;28;20047;-66
2022/01/25 10:16:06;;;;;;;17.77;10.18;;;;;;;6.26;31.69;91524.06;5095835;28;20039;-65
2022/01/25 10:18:58;;;;;;;20.48;11.13;;;;;;;5.22;32.82;91525.38;5114072;28;20497;-66
2022/01/25 10:21:38;;;;;;;20.23;10.88;;;;;;;6.50;32.55;91518.22;5114203;28;20035;-66
2022/01/25 10:24:11;;;;;;;16.45;9.60;;;;;;;7.68;31.37;91519.19;5113491;28;20047;-66
2022/01/25 10:26:39;;;;;;;19.58;12.27;;;;;;;7.28;30.92;91505.19;5114029;28;20067;-66
2022/01/25 10:29:13;;;;;;;15.60;9.13;;;;;;;6.56;32.00;91517.13;5113542;28;20151;-65
2022/01/25 10:31:41;;;;;;;12.43;7.55;;;;;;;8.15;30.21;91509.81;5092973;28;20063;-67
2022/01/25 10:34:09;;;;;;;12.82;7.45;;;;;;;8.89;28.74;91500.59;5093430;28;20455;-66
2022/01/25 10:36:47;;;;;;;14.02;8.00;;;;;;;8.02;30.34;91495.34;5092824;28;20442;-65
2022/01/25 10:39:26;;;;;;;13.65;8.00;;;;;;;7.66;30.85;91500.16;5093060;28;20036;-65
2022/01/25 10:42:00;;;;;;;13.63;7.82;;;;;;;6.32;32.46;91505.59;5093330;28;20042;-65
2022/01/25 10:44:25;;;;;;;12.18;7.65;;;;;;;7.18;31.77;91484.84;5092611;28;20043;-66
2022/01/25 10:46:51;;;;;;;12.00;7.40;;;;;;;7.26;31.12;91495.91;5093308;28;20024;-65
2022/01/25 10:49:17;;;;;;;12.60;8.15;;;;;;;7.51;30.88;91491.25;5093342;28;20059;-65
2022/01/25 10:51:46;;;;;;;16.90;9.27;;;;;;;7.76;31.62;91497.44;5092794;28;20097;-65
2022/01/25 10:54:15;;;;;;;12.40;8.57;;;;;;;8.09;30.62;91493.19;5092844;28;20046;-62
2022/01/25 10:56:53;;;;;;;14.40;9.27;;;;;;;6.05;32.62;91488.19;5092536;28;20136;-61
2022/01/25 10:59:25;;;;;;;14.50;8.75;;;;;;;5.57;33.92;91502.72;5092423;28;20063;-62
2022/01/25 11:01:54;;;;;;;15.98;10.13;;;;;;;5.05;34.30;91504.53;5093023;28;20574;-62
2022/01/25 11:04:24;;;;;;;15.52;9.70;;;;;;;5.79;34.78;91499.81;5092951;28;20043;-63
2022/01/25 11:07:03;;;;;;;17.80;12.48;;;;;;;7.23;33.05;91486.66;5092234;28;20048;-62
2022/01/25 11:09:36;;;;;;;19.05;11.73;;;;;;;7.12;32.52;91479.88;5092560;28;20043;-63
2022/01/25 11:12:03;;;;;;;;;;;;;;;8.43;31.14;91473.78;5093174;28;20032;-64
2022/01/25 11:17:14;;;;;;;18.42;10.43;;;;;;;5.70;34.76;91476.59;5092908;28;20193;-62
2022/01/25 11:19:40;;;;;;;16.17;10.10;;;;;;;6.52;33.07;91465.88;5092120;28;20111;-63
2022/01/25 11:22:09;;;;;;;15.20;9.43;;;;;;;7.17;31.81;91466.59;5092265;28;20032;-64
2022/01/25 11:24:37;;;;;;;25.13;14.93;;;;;;;6.58;32.28;91451.56;5092056;28;20397;-64
2022/01/25 11:27:04;;;;;;;18.42;11.43;;;;;;;6.11;33.73;91454.63;5092345;28;20109;-63
2022/01/25 11:29:32;;;;;;;15.85;8.70;;;;;;;5.04;34.26;91455.44;5091709;28;20043;-63
2022/01/25 11:32:10;;;;;;;19.45;9.88;;;;;;;5.27;34.41;91440.19;5092137;28;20047;-62
2022/01/25 11:34:37;;;;;;;21.20;10.93;;;;;;;5.83;34.25;91440.13;5092024;28;20044;-63
2022/01/25 11:37:05;;;;;;;13.93;7.43;;;;;;;5.90;34.32;91441.47;5091672;28;20036;-65
2022/01/25 11:39:32;;;;;;;18.25;11.27;;;;;;;5.54;33.94;91438.06;5091899;28;20093;-62
2022/01/25 11:42:05;;;;;;;27.65;14.30;;;;;;;6.56;33.39;91429.91;5092169;28;20048;-64
2022/01/25 11:44:31;;;;;;;16.85;10.48;;;;;;;6.06;33.59;91426.41;5091684;28;20032;-64
2022/01/25 11:47:07;;;;;;;20.75;12.68;;;;;;;6.45;33.75;91423.06;5093675;28;20059;-63
2022/01/25 11:49:32;;;;;;;14.65;9.63;;;;;;;6.10;34.80;91419.50;5091964;28;20035;-63
2022/01/25 11:52:15;;;;;;;14.50;9.65;;;;;;;7.42;31.83;91415.38;5092126;28;20028;-64
2022/01/25 11:54:42;;;;;;;21.63;12.95;;;;;;;7.39;32.91;91429.91;5091276;28;20473;-64
2022/01/25 11:57:10;;;;;;;13.30;8.50;;;;;;;4.58;34.04;91415.06;5090751;28;20028;-66
2022/01/25 11:59:37;;;;;;;18.55;10.38;;;;;;;5.70;34.81;91423.81;5112092;28;20028;-62
2022/01/25 12:02:02;;;;;;;12.13;8.40;;;;;;;5.31;34.50;91417.50;5112334;28;20051;-64
2022/01/25 12:04:31;;;;;;;14.50;9.07;;;;;;;7.32;33.17;91408.28;5110812;28;20063;-63
2022/01/25 12:07:02;;;;;;;14.98;8.43;;;;;;;7.03;33.23;91405.56;5109715;28;20020;-64
2022/01/25 12:10:04;;;;;;;13.25;8.85;;;;;;;9.27;29.53;91409.28;5092904;28;20507;-64
2022/01/25 12:12:30;;;;;;;17.88;11.48;;;;;;;7.74;31.75;91412.19;5111225;28;20020;-65
2022/01/25 12:14:56;;;;;;;23.88;13.13;;;;;;;7.94;30.85;91414.63;5111701;28;20031;-65
2022/01/25 12:17:27;;;;;;;20.55;12.05;;;;;;;7.72;31.53;91409.00;5111933;28;20349;-65
2022/01/25 12:20:03;;;;;;;21.80;14.18;;;;;;;7.76;32.95;91404.75;5110818;28;20465;-66
2022/01/25 12:25:45;;;;;;;18.50;12.40;;;;;;;9.24;29.69;91404.56;5111783;28;20036;-64
2022/01/25 12:28:01;;;;;;;54.35;34.15;;;;;;;8.48;31.82;91396.84;5107925;28;20039;-65
2022/01/25 12:30:26;;;;;;;25.10;16.02;;;;;;;9.41;29.79;91408.56;5111615;28;20042;-65
2022/01/25 12:33:08;;;;;;;26.98;15.52;;;;;;;9.87;28.38;91396.13;5111491;28;20015;-66
2022/01/25 12:35:44;;;;;;;15.68;10.27;;;;;;;8.01;31.18;91388.59;5110354;28;20024;-65
2022/01/25 12:38:14;;;;;;;18.02;11.00;;;;;;;5.93;34.01;91392.63;5110659;28;20034;-67
2022/01/25 12:40:55;;;;;;;14.10;10.05;;;;;;;5.92;33.90;91386.56;5100792;28;20027;-63
2022/01/25 12:43:26;;;;;;;19.67;12.93;;;;;;;6.71;33.04;91382.25;5101336;28;20437;-64
2022/01/25 12:45:56;;;;;;;15.45;10.13;;;;;;;6.30;34.55;91377.16;5111152;28;20066;-63
2022/01/25 12:48:27;;;;;;;21.17;12.73;;;;;;;7.04;32.91;91387.84;5095055;28;20115;-64
2022/01/25 12:50:54;;;;;;;19.33;12.93;;;;;;;6.30;33.93;91386.94;5091104;28;20032;-64
2022/01/25 12:53:23;;;;;;;42.67;27.38;;;;;;;5.51;33.63;91395.56;5093307;28;20062;-64
2022/01/25 12:55:53;;;;;;;22.58;14.18;;;;;;;6.15;33.79;91387.78;5099868;28;20101;-63
2022/01/25 12:58:23;;;;;;;27.67;18.73;;;;;;;7.20;32.82;91389.31;5099731;28;20024;-64
2022/01/25 13:00:50;;;;;;;16.83;11.02;;;;;;;6.58;33.99;91375.69;5100247;28;20485;-64
2022/01/25 13:03:32;;;;;;;27.92;15.32;;;;;;;7.46;32.34;91382.75;5104312;28;20039;-64
2022/01/25 13:06:12;;;;;;;19.90;14.07;;;;;;;7.90;31.61;91376.53;5110532;28;20038;-64
2022/01/25 13:09:12;;;;;;;28.45;17.35;;;;;;;7.07;31.96;91376.72;5111010;28;20488;-63
2022/01/25 13:12:09;;;;;;;21.35;14.85;;;;;;;6.94;32.29;91377.31;5111510;28;20028;-64